KLKR

Lancaster County-Mc Whirter Field Airport

Lancaster, South Carolina, USA
METAR KLKR 211255Z AUTO 16003KT 8SM FEW012 BKN020 19/19 A3046 RMK AO2
Observed Flight Rules
Feb-21 @ 12:55 UTC (23 minutes ago) Marginal Visual Flight Rules
Wind Visibility Clouds
160° at 3 knots 8 miles
  • Few at 1,200' AGL
  • Broken at 2,000' AGL
Temperatures Readings
Current 19°C / 66°F
Dewpoint 19°C / 66°F
Humidity 100%
Altimeter 30.46" Hg
Pressure 1031 hPa
Elevation 149
METAR KLKR 211255Z AUTO 16003KT 8SM FEW012 BKN020 19/19 A3046 RMK AO2
Observed Flight Rules
Feb-21 @ 12:55 UTC
(23 minutes ago)
MVFR
Wind Visibility
160° at 3 knots 8 miles
Clouds
  • Few at 1,200' AGL
  • Broken at 2,000' AGL
Temperature Dewpoint
19°C / 66°F 19°C / 66°F
Humidity Altimeter Pressure
100% 30.46" Hg 1031 hPa